createdAt,value
2023-06-18T00:01:49.763Z,18.38
2023-06-18T00:04:16.583Z,18.30
2023-06-18T00:06:43.376Z,18.25
2023-06-18T00:09:10.096Z,18.24
2023-06-18T00:11:36.749Z,18.27
2023-06-18T00:14:03.549Z,18.44
2023-06-18T00:16:30.527Z,18.39
2023-06-18T00:18:57.263Z,18.43
2023-06-18T00:21:23.931Z,18.50
2023-06-18T00:23:50.695Z,18.38
2023-06-18T00:26:17.388Z,18.44
2023-06-18T00:28:44.031Z,18.54
2023-06-18T00:31:12.902Z,18.35
2023-06-18T00:33:39.646Z,18.17
2023-06-18T00:36:07.954Z,18.09
2023-06-18T00:38:36.215Z,18.10
2023-06-18T00:41:02.901Z,18.05
2023-06-18T00:43:29.929Z,17.97
2023-06-18T00:46:00.662Z,18.00
2023-06-18T00:48:29.202Z,18.08
2023-06-18T00:50:56.029Z,17.98
2023-06-18T00:53:22.811Z,18.03
2023-06-18T00:55:50.112Z,18.05
2023-06-18T00:58:18.464Z,17.97
2023-06-18T01:00:45.493Z,17.73
2023-06-18T01:03:17.365Z,18.01
2023-06-18T01:05:52.058Z,17.92
2023-06-18T01:08:24.680Z,18.03
2023-06-18T01:11:05.537Z,18.04
2023-06-18T01:13:34.310Z,17.94
2023-06-18T01:16:05.754Z,17.89
2023-06-18T01:18:36.826Z,17.80
2023-06-18T01:21:11.480Z,17.90
2023-06-18T01:23:51.481Z,17.91
2023-06-18T01:26:22.048Z,18.05
2023-06-18T01:28:53.252Z,18.04
2023-06-18T01:31:22.523Z,17.77
2023-06-18T01:33:52.555Z,17.76
2023-06-18T01:36:35.775Z,17.95
2023-06-18T01:39:17.977Z,17.98
2023-06-18T01:41:49.913Z,18.06
2023-06-18T01:44:20.662Z,18.03
2023-06-18T01:46:49.409Z,17.91
2023-06-18T01:49:19.138Z,18.00
2023-06-18T01:51:46.585Z,18.06
2023-06-18T01:54:14.996Z,17.98
2023-06-18T01:56:42.052Z,17.84
2023-06-18T01:59:08.706Z,17.93
2023-06-18T02:01:36.225Z,17.92
2023-06-18T02:04:04.055Z,17.91
2023-06-18T02:06:30.866Z,17.99
2023-06-18T02:08:57.552Z,17.80
2023-06-18T02:11:24.683Z,18.11
2023-06-18T02:13:51.415Z,18.11
2023-06-18T02:16:18.136Z,18.07
2023-06-18T02:18:44.894Z,18.09
2023-06-18T02:21:11.784Z,18.03
2023-06-18T02:23:38.462Z,18.00
2023-06-18T02:26:05.221Z,17.98
2023-06-18T02:28:31.882Z,18.09
2023-06-18T02:30:58.602Z,18.02
2023-06-18T02:33:25.325Z,17.90
2023-06-18T02:35:52.217Z,17.95
2023-06-18T02:38:19.032Z,17.79
2023-06-18T02:40:45.901Z,17.79
2023-06-18T02:43:13.993Z,17.77
2023-06-18T02:45:40.709Z,17.85
2023-06-18T02:48:07.465Z,17.98
2023-06-18T02:50:34.267Z,18.01
2023-06-18T02:53:01.148Z,18.04
2023-06-18T02:55:29.370Z,18.17
2023-06-18T02:57:56.017Z,18.16
2023-06-18T03:00:23.266Z,18.17
2023-06-18T03:02:50.167Z,18.11
2023-06-18T03:05:16.901Z,18.24
2023-06-18T03:07:43.623Z,18.24
2023-06-18T03:10:10.747Z,18.29
2023-06-18T03:12:38.092Z,18.26
2023-06-18T03:15:06.842Z,18.38
2023-06-18T03:17:34.231Z,18.36
2023-06-18T03:20:00.974Z,18.25
2023-06-18T03:22:27.679Z,18.29
2023-06-18T03:24:54.424Z,18.17
2023-06-18T03:27:21.171Z,18.17
2023-06-18T03:29:47.986Z,18.34
2023-06-18T03:32:14.716Z,18.19
2023-06-18T03:34:43.813Z,18.30
2023-06-18T03:37:10.756Z,18.15
2023-06-18T03:39:37.462Z,18.18
2023-06-18T03:42:04.366Z,18.23
2023-06-18T03:44:31.117Z,18.16
2023-06-18T03:46:58.156Z,18.30
2023-06-18T03:49:24.908Z,18.27
2023-06-18T03:51:51.658Z,18.19
2023-06-18T03:54:18.321Z,18.06
2023-06-18T03:56:45.024Z,17.99
2023-06-18T03:59:11.987Z,17.84
2023-06-18T04:01:38.829Z,17.82
2023-06-18T04:04:05.683Z,17.81
2023-06-18T04:06:32.431Z,17.92
2023-06-18T04:08:59.295Z,17.89
2023-06-18T04:11:26.073Z,17.94
2023-06-18T04:13:52.831Z,17.87
2023-06-18T04:16:19.543Z,17.95
2023-06-18T04:18:46.267Z,17.95
2023-06-18T04:21:12.902Z,17.96
2023-06-18T04:23:42.334Z,18.03
2023-06-18T04:26:09.144Z,17.85
2023-06-18T04:28:35.842Z,18.03
2023-06-18T04:31:02.611Z,18.20
2023-06-18T04:33:29.443Z,18.29
2023-06-18T04:35:56.181Z,18.50
2023-06-18T04:38:22.980Z,18.42
2023-06-18T04:40:50.729Z,18.41
2023-06-18T04:43:19.047Z,18.27
2023-06-18T04:45:47.661Z,18.36
2023-06-18T04:48:15.416Z,18.32
2023-06-18T04:50:42.426Z,18.30
2023-06-18T04:53:09.395Z,18.28
2023-06-18T04:55:37.071Z,18.31
2023-06-18T04:58:05.642Z,18.28
2023-06-18T05:00:34.449Z,18.34
2023-06-18T05:03:02.035Z,18.33
2023-06-18T05:05:29.081Z,18.38
2023-06-18T05:07:56.301Z,18.34
2023-06-18T05:10:23.348Z,18.25
2023-06-18T05:12:50.316Z,18.29
2023-06-18T05:15:17.015Z,18.37
2023-06-18T05:17:43.794Z,18.47
2023-06-18T05:20:10.962Z,18.53
2023-06-18T05:22:38.276Z,18.62
2023-06-18T05:25:06.089Z,18.48
2023-06-18T05:27:33.035Z,18.39
2023-06-18T05:30:00.781Z,18.48
2023-06-18T05:32:27.687Z,18.48
2023-06-18T05:34:56.577Z,19.07
2023-06-18T05:37:23.614Z,18.76
2023-06-18T05:39:52.586Z,18.93
2023-06-18T05:42:19.841Z,19.18
2023-06-18T05:44:46.635Z,19.15
2023-06-18T05:47:13.332Z,19.09
2023-06-18T05:49:40.005Z,18.87
2023-06-18T05:52:07.227Z,19.37
2023-06-18T05:54:34.013Z,19.40
2023-06-18T05:57:01.600Z,19.39
2023-06-18T05:59:28.315Z,19.50
2023-06-18T06:01:56.239Z,19.45
2023-06-18T06:04:23.607Z,19.52
2023-06-18T06:06:50.819Z,19.20
2023-06-18T06:09:17.512Z,19.28
2023-06-18T06:11:44.227Z,18.99
2023-06-18T06:14:10.976Z,19.06
2023-06-18T06:16:38.259Z,19.20
2023-06-18T06:19:05.069Z,19.21
2023-06-18T06:21:34.596Z,19.31
2023-06-18T06:24:01.600Z,19.09
2023-06-18T06:26:28.911Z,19.15
2023-06-18T06:28:55.591Z,19.18
2023-06-18T06:31:22.628Z,19.04
2023-06-18T06:33:49.929Z,19.08
2023-06-18T06:36:16.894Z,19.12
2023-06-18T06:38:43.584Z,19.03
2023-06-18T06:41:12.060Z,19.00
2023-06-18T06:43:39.127Z,19.12
2023-06-18T06:46:05.862Z,18.77
2023-06-18T06:48:33.124Z,19.04
2023-06-18T06:50:59.803Z,18.76
2023-06-18T06:53:26.495Z,18.63
2023-06-18T06:55:53.190Z,18.96
2023-06-18T06:58:20.016Z,19.36
2023-06-18T07:00:46.808Z,19.38
2023-06-18T07:03:13.631Z,19.43
2023-06-18T07:05:40.384Z,20.70
2023-06-18T07:08:07.115Z,21.00
2023-06-18T07:10:35.475Z,21.39
2023-06-18T07:13:02.193Z,21.44
2023-06-18T07:15:28.893Z,21.71
2023-06-18T07:17:55.718Z,22.05
2023-06-18T07:20:22.751Z,22.33
2023-06-18T07:22:49.606Z,22.70
2023-06-18T07:25:16.442Z,23.04
2023-06-18T07:27:43.203Z,22.85
2023-06-18T07:30:10.342Z,22.97
2023-06-18T07:32:37.048Z,23.04
2023-06-18T07:35:03.976Z,22.86
2023-06-18T07:37:30.713Z,23.28
2023-06-18T07:39:57.361Z,23.20
2023-06-18T07:42:24.337Z,23.37
2023-06-18T07:44:52.965Z,23.60
2023-06-18T07:47:20.184Z,24.04
2023-06-18T07:49:46.962Z,24.21
2023-06-18T07:52:13.611Z,24.07
2023-06-18T07:54:40.282Z,24.15
2023-06-18T07:57:07.069Z,24.25
2023-06-18T07:59:33.828Z,23.75
2023-06-18T08:02:00.914Z,24.22
2023-06-18T08:04:27.631Z,23.53
2023-06-18T08:06:54.353Z,23.94
2023-06-18T08:09:21.059Z,23.86
2023-06-18T08:11:49.497Z,23.93
2023-06-18T08:14:16.245Z,23.59
2023-06-18T08:16:42.986Z,23.81
2023-06-18T08:19:09.761Z,24.56
2023-06-18T08:21:36.851Z,24.25
2023-06-18T08:24:04.588Z,23.90
2023-06-18T08:26:31.381Z,23.57
2023-06-18T08:28:58.465Z,23.27
2023-06-18T08:31:25.284Z,23.43
2023-06-18T08:33:52.094Z,23.27
2023-06-18T08:36:23.331Z,23.41
2023-06-18T08:38:50.770Z,23.49
2023-06-18T08:41:17.610Z,23.72
2023-06-18T08:43:44.793Z,23.64
2023-06-18T08:46:16.631Z,23.11
2023-06-18T08:49:01.700Z,22.91
2023-06-18T08:51:28.628Z,23.17
2023-06-18T08:54:19.388Z,23.27
2023-06-18T08:56:48.011Z,23.31
2023-06-18T08:59:15.360Z,22.99
2023-06-18T09:01:46.497Z,23.65
2023-06-18T09:04:14.080Z,22.98
2023-06-18T09:06:40.973Z,23.11
2023-06-18T09:09:08.143Z,23.59
2023-06-18T09:11:37.478Z,23.23
2023-06-18T09:14:05.639Z,22.75
2023-06-18T09:16:32.399Z,22.12
2023-06-18T09:19:03.981Z,22.13
2023-06-18T09:21:43.829Z,22.26
2023-06-18T09:24:18.434Z,21.54
2023-06-18T09:26:45.344Z,21.54
2023-06-18T09:29:13.164Z,21.59
2023-06-18T09:31:46.201Z,21.55
2023-06-18T09:34:13.406Z,21.65
2023-06-18T09:36:42.496Z,21.29
2023-06-18T09:39:22.594Z,22.13
2023-06-18T09:41:51.274Z,21.64
2023-06-18T09:44:19.206Z,21.55
2023-06-18T09:46:49.242Z,21.76
2023-06-18T09:49:20.667Z,22.06
2023-06-18T09:51:49.680Z,22.42
2023-06-18T09:54:16.466Z,22.40
2023-06-18T09:57:00.296Z,21.90
2023-06-18T09:59:28.014Z,21.70
2023-06-18T10:01:56.218Z,22.25
2023-06-18T10:04:23.528Z,22.45
2023-06-18T10:07:03.266Z,22.30
2023-06-18T10:09:33.741Z,22.32
2023-06-18T10:12:02.941Z,22.39
2023-06-18T10:14:31.040Z,22.51
2023-06-18T10:17:17.875Z,22.16
2023-06-18T10:19:49.097Z,22.44
2023-06-18T10:22:18.240Z,22.32
2023-06-18T10:25:08.288Z,22.27
2023-06-18T10:27:36.450Z,22.78
2023-06-18T10:30:04.849Z,22.49
2023-06-18T10:32:33.531Z,22.69
2023-06-18T10:35:02.840Z,22.60
2023-06-18T10:37:33.080Z,22.37
2023-06-18T10:40:00.501Z,22.23
2023-06-18T10:42:27.199Z,22.07
2023-06-18T10:44:56.033Z,22.14
2023-06-18T10:47:32.848Z,22.32
2023-06-18T10:50:02.323Z,22.15
2023-06-18T10:52:31.848Z,22.32
2023-06-18T10:55:08.438Z,21.91
2023-06-18T10:57:43.064Z,22.37
2023-06-18T11:00:42.094Z,22.51
2023-06-18T11:03:15.073Z,22.47
2023-06-18T11:05:42.751Z,22.16
2023-06-18T11:08:12.529Z,21.83
2023-06-18T11:11:03.337Z,21.59
2023-06-18T11:13:35.884Z,22.05
2023-06-18T11:16:13.061Z,22.08
2023-06-18T11:18:43.483Z,22.32
2023-06-18T11:21:17.194Z,22.21
2023-06-18T11:23:44.518Z,22.21
2023-06-18T11:26:18.520Z,21.86
2023-06-18T11:28:46.661Z,22.26
2023-06-18T11:31:13.657Z,21.91
2023-06-18T11:33:41.289Z,21.78
2023-06-18T11:36:14.834Z,22.29
2023-06-18T11:38:42.696Z,22.23
2023-06-18T11:41:10.093Z,21.63
2023-06-18T11:44:06.156Z,22.32
2023-06-18T11:46:36.717Z,22.45
2023-06-18T11:49:03.828Z,22.45
2023-06-18T11:51:32.636Z,22.44
2023-06-18T11:53:59.896Z,22.33
2023-06-18T11:56:29.417Z,22.20
2023-06-18T11:58:57.910Z,22.11
2023-06-18T12:01:33.685Z,22.50
2023-06-18T12:04:08.412Z,22.91
2023-06-18T12:06:37.000Z,23.09
2023-06-18T12:09:06.369Z,22.89
2023-06-18T12:11:47.740Z,22.32
2023-06-18T12:14:41.465Z,22.34
2023-06-18T12:17:26.718Z,22.21
2023-06-18T12:20:08.433Z,21.95
2023-06-18T12:22:36.063Z,22.33
2023-06-18T12:25:03.044Z,22.31
2023-06-18T12:27:30.413Z,22.29
2023-06-18T12:30:07.006Z,21.98
2023-06-18T12:32:37.638Z,21.74
2023-06-18T12:35:18.317Z,21.71
2023-06-18T12:37:47.575Z,21.48
2023-06-18T12:40:19.973Z,21.33
2023-06-18T12:42:50.174Z,21.70
2023-06-18T12:45:23.563Z,21.78
2023-06-18T12:47:50.684Z,21.99
2023-06-18T12:50:23.515Z,21.96
2023-06-18T12:52:50.534Z,21.66
2023-06-18T12:55:18.194Z,21.71
2023-06-18T12:57:49.587Z,22.25
2023-06-18T13:00:20.958Z,22.14
2023-06-18T13:02:49.507Z,22.72
2023-06-18T13:05:16.852Z,22.55
2023-06-18T13:07:54.586Z,22.10
2023-06-18T13:10:21.610Z,22.76
2023-06-18T13:12:48.588Z,22.57
2023-06-18T13:15:16.065Z,22.85
2023-06-18T13:17:44.316Z,22.91
2023-06-18T13:20:11.855Z,23.09
2023-06-18T13:22:38.567Z,22.95
2023-06-18T13:25:06.699Z,23.05
2023-06-18T13:27:34.835Z,22.88
2023-06-18T13:30:01.730Z,22.13
2023-06-18T13:32:28.808Z,22.10
2023-06-18T13:34:55.957Z,22.39
2023-06-18T13:37:23.012Z,21.94
2023-06-18T13:39:50.659Z,21.59
2023-06-18T13:42:18.299Z,21.89
2023-06-18T13:44:45.835Z,22.06
2023-06-18T13:47:12.606Z,21.56
2023-06-18T13:49:39.562Z,21.85
2023-06-18T13:52:07.168Z,21.74
2023-06-18T13:54:34.015Z,22.07
2023-06-18T13:57:01.123Z,21.97
2023-06-18T13:59:28.151Z,22.15
2023-06-18T14:01:54.862Z,22.39
2023-06-18T14:04:23.780Z,22.23
2023-06-18T14:06:50.635Z,22.18
2023-06-18T14:09:19.910Z,22.05
2023-06-18T14:11:47.380Z,21.69
2023-06-18T14:14:15.044Z,22.22
2023-06-18T14:16:42.213Z,22.37
2023-06-18T14:19:09.729Z,22.17
2023-06-18T14:21:36.605Z,22.34
2023-06-18T14:24:04.816Z,22.07
2023-06-18T14:26:33.345Z,22.03
2023-06-18T14:29:00.987Z,22.12
2023-06-18T14:31:28.284Z,22.12
2023-06-18T14:34:07.837Z,21.98
2023-06-18T14:36:39.351Z,21.85
2023-06-18T14:39:08.772Z,21.85
2023-06-18T14:41:36.352Z,21.58
2023-06-18T14:44:03.091Z,21.37
2023-06-18T14:46:29.786Z,21.59
2023-06-18T14:48:56.508Z,22.02
2023-06-18T14:51:23.182Z,22.06
2023-06-18T14:53:53.495Z,22.23
2023-06-18T14:56:26.817Z,22.23
2023-06-18T14:58:53.516Z,21.87
2023-06-18T15:01:20.214Z,21.67
2023-06-18T15:03:47.189Z,22.10
2023-06-18T15:06:13.972Z,21.95
2023-06-18T15:08:40.625Z,21.75
2023-06-18T15:11:07.298Z,22.18
2023-06-18T15:13:33.939Z,22.32
2023-06-18T15:16:00.745Z,22.26
2023-06-18T15:18:27.401Z,22.18
2023-06-18T15:20:54.961Z,21.94
2023-06-18T15:23:21.709Z,21.29
2023-06-18T15:25:48.363Z,21.51
2023-06-18T15:28:15.099Z,21.74
2023-06-18T15:30:41.743Z,21.63
2023-06-18T15:33:10.081Z,22.15
2023-06-18T15:35:36.800Z,21.75
2023-06-18T15:38:03.814Z,21.64
2023-06-18T15:40:30.509Z,21.02
2023-06-18T15:42:57.520Z,21.04
2023-06-18T15:45:24.346Z,21.40
2023-06-18T15:47:51.184Z,21.54
2023-06-18T15:50:17.918Z,21.74
2023-06-18T15:52:44.588Z,21.34
2023-06-18T15:55:11.801Z,20.86
2023-06-18T15:57:38.531Z,20.85
2023-06-18T16:00:07.184Z,20.99
2023-06-18T16:02:34.771Z,20.97
2023-06-18T16:05:06.512Z,21.16
2023-06-18T16:07:35.696Z,20.73
2023-06-18T16:10:02.412Z,20.57
2023-06-18T16:12:29.639Z,20.46
2023-06-18T16:14:56.355Z,20.57
2023-06-18T16:17:23.985Z,20.56
2023-06-18T16:19:50.762Z,20.92
2023-06-18T16:22:17.455Z,21.33
2023-06-18T16:24:44.548Z,21.16
2023-06-18T16:27:11.328Z,20.74
2023-06-18T16:29:38.057Z,20.74
2023-06-18T16:32:11.923Z,21.02
2023-06-18T16:34:39.512Z,21.24
2023-06-18T16:37:06.819Z,21.22
2023-06-18T16:39:40.741Z,21.24
2023-06-18T16:42:07.535Z,21.36
2023-06-18T16:44:34.235Z,21.48
2023-06-18T16:47:00.883Z,21.32
2023-06-18T16:49:27.584Z,21.57
2023-06-18T16:51:54.279Z,21.56
2023-06-18T16:54:21.218Z,21.37
2023-06-18T16:56:49.907Z,21.43
2023-06-18T16:59:20.259Z,20.65
2023-06-18T17:01:47.253Z,20.57
2023-06-18T17:04:14.200Z,20.85
2023-06-18T17:06:40.888Z,20.86
2023-06-18T17:09:07.642Z,21.20
2023-06-18T17:11:34.619Z,20.98
2023-06-18T17:14:01.749Z,20.70
2023-06-18T17:16:28.549Z,20.63
2023-06-18T17:18:55.773Z,20.66
2023-06-18T17:21:22.808Z,20.33
2023-06-18T17:23:51.149Z,20.32
2023-06-18T17:26:17.983Z,20.16
2023-06-18T17:28:44.719Z,20.17
2023-06-18T17:31:11.404Z,20.17
2023-06-18T17:33:38.091Z,19.79
2023-06-18T17:36:07.382Z,19.92
2023-06-18T17:38:34.129Z,19.87
2023-06-18T17:41:00.864Z,20.04
2023-06-18T17:43:27.867Z,20.26
2023-06-18T17:46:14.283Z,20.17
2023-06-18T17:48:50.213Z,20.28
2023-06-18T17:51:17.823Z,20.03
2023-06-18T17:53:46.019Z,20.02
2023-06-18T17:56:13.007Z,19.94
2023-06-18T17:58:40.701Z,19.90
2023-06-18T18:01:08.156Z,20.01
2023-06-18T18:03:35.708Z,20.10
2023-06-18T18:06:03.676Z,20.14
2023-06-18T18:08:31.079Z,20.47
2023-06-18T18:10:57.932Z,20.12
2023-06-18T18:13:27.740Z,19.87
2023-06-18T18:16:01.189Z,19.70
2023-06-18T18:18:28.251Z,19.81
2023-06-18T18:20:55.136Z,19.67
2023-06-18T18:23:21.919Z,20.15
2023-06-18T18:25:48.633Z,19.86
2023-06-18T18:28:15.508Z,19.56
2023-06-18T18:30:42.270Z,19.60
2023-06-18T18:33:09.615Z,19.50
2023-06-18T18:35:36.501Z,19.60
2023-06-18T18:38:03.791Z,19.49
2023-06-18T18:40:31.479Z,19.35
2023-06-18T18:42:58.194Z,19.38
2023-06-18T18:45:25.177Z,19.43
2023-06-18T18:47:52.643Z,19.23
2023-06-18T18:50:21.869Z,19.42
2023-06-18T18:52:48.878Z,19.20
2023-06-18T18:55:16.152Z,19.32
2023-06-18T18:57:42.871Z,19.58
2023-06-18T19:00:10.046Z,19.56
2023-06-18T19:02:36.927Z,19.60
2023-06-18T19:05:04.262Z,19.56
2023-06-18T19:07:31.010Z,19.53
2023-06-18T19:09:57.787Z,19.60
2023-06-18T19:12:24.562Z,19.34
2023-06-18T19:14:51.489Z,19.47
2023-06-18T19:17:19.217Z,19.50
2023-06-18T19:19:45.956Z,19.25
2023-06-18T19:22:12.762Z,19.10
2023-06-18T19:24:39.647Z,19.52
2023-06-18T19:27:06.729Z,19.25
2023-06-18T19:29:33.384Z,19.06
2023-06-18T19:32:00.045Z,19.04
2023-06-18T19:34:26.892Z,19.06
2023-06-18T19:36:53.964Z,19.10
2023-06-18T19:39:20.891Z,18.86
2023-06-18T19:41:47.690Z,18.87
2023-06-18T19:44:14.443Z,18.84
2023-06-18T19:46:46.504Z,18.98
2023-06-18T19:49:13.506Z,18.71
2023-06-18T19:51:40.245Z,18.77
2023-06-18T19:54:07.404Z,18.79
2023-06-18T19:56:34.507Z,18.87
2023-06-18T19:59:01.484Z,18.91
2023-06-18T20:01:28.611Z,18.84
2023-06-18T20:03:55.513Z,18.95
2023-06-18T20:06:22.425Z,19.07
2023-06-18T20:08:49.218Z,18.68
2023-06-18T20:11:15.913Z,18.77
2023-06-18T20:13:43.687Z,18.72
2023-06-18T20:16:10.780Z,18.71
2023-06-18T20:18:37.507Z,18.69
2023-06-18T20:21:04.319Z,18.76
2023-06-18T20:23:31.507Z,18.58
2023-06-18T20:25:58.594Z,18.61
2023-06-18T20:28:25.364Z,18.54
2023-06-18T20:30:52.146Z,18.50
2023-06-18T20:33:18.849Z,18.38
2023-06-18T20:35:45.582Z,18.29
2023-06-18T20:38:12.389Z,18.28
2023-06-18T20:40:39.107Z,18.34
2023-06-18T20:43:05.917Z,18.39
2023-06-18T20:45:32.646Z,18.18
2023-06-18T20:48:00.986Z,18.29
2023-06-18T20:50:28.025Z,18.24
2023-06-18T20:52:54.690Z,18.16
2023-06-18T20:55:21.401Z,18.15
2023-06-18T20:57:48.932Z,18.18
2023-06-18T21:00:16.073Z,18.04
2023-06-18T21:02:42.901Z,18.16
2023-06-18T21:05:11.092Z,18.39
2023-06-18T21:07:38.876Z,18.48
2023-06-18T21:10:08.948Z,18.20
2023-06-18T21:12:35.646Z,18.20
2023-06-18T21:15:02.373Z,18.18
2023-06-18T21:17:29.094Z,18.24
2023-06-18T21:19:55.762Z,18.24
2023-06-18T21:22:22.612Z,18.16
2023-06-18T21:24:49.468Z,18.00
2023-06-18T21:27:16.155Z,18.11
2023-06-18T21:29:42.823Z,18.07
2023-06-18T21:32:09.516Z,17.99
2023-06-18T21:34:36.256Z,18.15
2023-06-18T21:37:02.952Z,18.18
2023-06-18T21:39:29.650Z,18.04
2023-06-18T21:41:58.625Z,18.05
2023-06-18T21:44:25.540Z,18.13
2023-06-18T21:46:52.243Z,18.32
2023-06-18T21:49:18.975Z,18.20
2023-06-18T21:51:45.698Z,18.21
2023-06-18T21:54:12.492Z,18.32
2023-06-18T21:56:39.218Z,18.35
2023-06-18T21:59:05.986Z,18.16
2023-06-18T22:01:32.667Z,18.27
2023-06-18T22:03:59.385Z,18.14
2023-06-18T22:06:26.113Z,18.27
2023-06-18T22:08:53.523Z,18.26
2023-06-18T22:11:23.369Z,18.13
2023-06-18T22:13:50.219Z,18.25
2023-06-18T22:16:17.272Z,18.33
2023-06-18T22:18:44.035Z,18.16
2023-06-18T22:21:11.574Z,18.18
2023-06-18T22:23:38.875Z,17.99
2023-06-18T22:26:06.566Z,18.20
2023-06-18T22:28:33.535Z,18.30
2023-06-18T22:31:00.256Z,18.29
2023-06-18T22:33:29.968Z,18.21
2023-06-18T22:35:56.837Z,18.11
2023-06-18T22:38:23.725Z,18.23
2023-06-18T22:40:50.668Z,18.24
2023-06-18T22:43:17.391Z,18.03
2023-06-18T22:45:44.223Z,18.03
2023-06-18T22:48:10.971Z,18.18
2023-06-18T22:50:38.661Z,18.06
2023-06-18T22:53:05.768Z,17.98
2023-06-18T22:55:36.618Z,18.01
2023-06-18T22:58:03.290Z,18.02
2023-06-18T23:00:30.443Z,17.91
2023-06-18T23:02:57.226Z,17.98
2023-06-18T23:05:24.113Z,17.87
2023-06-18T23:07:51.984Z,17.92
2023-06-18T23:10:20.801Z,18.00
2023-06-18T23:12:47.778Z,18.09
2023-06-18T23:15:14.808Z,18.09
2023-06-18T23:17:42.942Z,18.20
2023-06-18T23:20:14.085Z,17.93
2023-06-18T23:22:43.264Z,18.06
2023-06-18T23:25:10.632Z,17.98
2023-06-18T23:31:05.211Z,18.05
2023-06-18T23:33:35.489Z,17.86
2023-06-18T23:36:51.908Z,17.86
2023-06-18T23:39:20.964Z,17.69
2023-06-18T23:41:47.686Z,17.91
2023-06-18T23:44:14.400Z,17.78
2023-06-18T23:46:41.072Z,17.81
2023-06-18T23:49:08.010Z,17.87
2023-06-18T23:51:34.718Z,17.82
2023-06-18T23:54:01.529Z,17.89
2023-06-18T23:56:28.230Z,17.71
2023-06-18T23:58:54.918Z,17.72
